sensor_id;sensor_type;location;lat;lon;timestamp;pressure;altitude;pressure_sealevel;temperature;humidity
43681;BME280;29281;50.356;30.894;2023-11-19T00:00:35;100735.14;;;0.81;97.97
43681;BME280;29281;50.356;30.894;2023-11-19T00:01:39;100729.78;;;0.88;98.04
43681;BME280;29281;50.356;30.894;2023-11-19T00:02:42;100727.94;;;0.92;98.25
43681;BME280;29281;50.356;30.894;2023-11-19T00:03:46;100732.80;;;1.10;97.63
43681;BME280;29281;50.356;30.894;2023-11-19T00:04:50;100731.10;;;1.08;97.15
43681;BME280;29281;50.356;30.894;2023-11-19T00:05:54;100730.12;;;1.13;97.73
43681;BME280;29281;50.356;30.894;2023-11-19T00:06:58;100727.39;;;1.19;97.24
43681;BME280;29281;50.356;30.894;2023-11-19T00:08:08;100720.44;;;1.18;96.55
43681;BME280;29281;50.356;30.894;2023-11-19T00:09:13;100723.89;;;1.20;96.22
43681;BME280;29281;50.356;30.894;2023-11-19T00:10:21;100721.63;;;1.03;97.10
43681;BME280;29281;50.356;30.894;2023-11-19T00:11:24;100724.32;;;0.99;97.21
43681;BME280;29281;50.356;30.894;2023-11-19T00:12:28;100720.76;;;1.03;97.09
43681;BME280;29281;50.356;30.894;2023-11-19T00:13:31;100719.09;;;0.99;97.80
43681;BME280;29281;50.356;30.894;2023-11-19T00:14:34;100719.92;;;1.01;97.70
43681;BME280;29281;50.356;30.894;2023-11-19T00:15:38;100722.37;;;1.09;97.18
43681;BME280;29281;50.356;30.894;2023-11-19T00:16:43;100720.03;;;0.95;97.50
43681;BME280;29281;50.356;30.894;2023-11-19T00:17:47;100718.20;;;1.00;97.41
43681;BME280;29281;50.356;30.894;2023-11-19T00:18:53;100723.11;;;1.15;96.86
43681;BME280;29281;50.356;30.894;2023-11-19T00:19:56;100735.36;;;1.13;96.73
43681;BME280;29281;50.356;30.894;2023-11-19T00:21:00;100723.20;;;1.11;96.39
43681;BME280;29281;50.356;30.894;2023-11-19T00:22:06;100726.73;;;1.08;97.66
43681;BME280;29281;50.356;30.894;2023-11-19T00:23:10;100733.36;;;0.83;97.59
43681;BME280;29281;50.356;30.894;2023-11-19T00:24:13;100722.96;;;0.80;98.74
43681;BME280;29281;50.356;30.894;2023-11-19T00:25:20;100721.08;;;0.88;99.05
43681;BME280;29281;50.356;30.894;2023-11-19T00:26:27;100722.68;;;0.93;98.28
43681;BME280;29281;50.356;30.894;2023-11-19T00:27:32;100728.75;;;0.95;98.14
43681;BME280;29281;50.356;30.894;2023-11-19T00:28:34;100720.03;;;0.95;98.00
43681;BME280;29281;50.356;30.894;2023-11-19T00:29:39;100725.16;;;1.01;97.60
43681;BME280;29281;50.356;30.894;2023-11-19T00:30:43;100726.33;;;0.86;97.27
43681;BME280;29281;50.356;30.894;2023-11-19T00:31:45;100722.02;;;0.84;97.96
43681;BME280;29281;50.356;30.894;2023-11-19T00:32:51;100720.38;;;0.78;98.09
43681;BME280;29281;50.356;30.894;2023-11-19T00:33:55;100718.28;;;0.95;98.27
43681;BME280;29281;50.356;30.894;2023-11-19T00:34:59;100724.18;;;1.07;98.11
43681;BME280;29281;50.356;30.894;2023-11-19T00:36:02;100713.59;;;1.11;97.49
43681;BME280;29281;50.356;30.894;2023-11-19T00:37:07;100717.34;;;0.99;97.37
43681;BME280;29281;50.356;30.894;2023-11-19T00:38:12;100711.94;;;1.07;97.46
43681;BME280;29281;50.356;30.894;2023-11-19T00:39:15;100714.98;;;0.87;97.69
43681;BME280;29281;50.356;30.894;2023-11-19T00:40:22;100706.19;;;0.91;98.39
43681;BME280;29281;50.356;30.894;2023-11-19T00:41:27;100710.47;;;0.94;97.95
43681;BME280;29281;50.356;30.894;2023-11-19T00:42:31;100709.41;;;1.04;98.00
43681;BME280;29281;50.356;30.894;2023-11-19T00:43:34;100705.52;;;0.80;98.75
43681;BME280;29281;50.356;30.894;2023-11-19T00:44:39;100714.23;;;0.81;99.20
43681;BME280;29281;50.356;30.894;2023-11-19T00:45:43;100714.06;;;0.90;98.90
43681;BME280;29281;50.356;30.894;2023-11-19T00:46:47;100710.36;;;1.00;98.32
43681;BME280;29281;50.356;30.894;2023-11-19T00:47:53;100707.11;;;0.89;98.00
43681;BME280;29281;50.356;30.894;2023-11-19T00:48:58;100713.97;;;0.93;97.63
43681;BME280;29281;50.356;30.894;2023-11-19T00:50:05;100714.12;;;0.87;98.56
43681;BME280;29281;50.356;30.894;2023-11-19T00:51:11;100715.64;;;0.97;97.83
43681;BME280;29281;50.356;30.894;2023-11-19T00:52:15;100710.67;;;0.85;98.09
43681;BME280;29281;50.356;30.894;2023-11-19T00:53:18;100706.82;;;1.02;98.17
43681;BME280;29281;50.356;30.894;2023-11-19T00:54:23;100708.52;;;1.05;97.97
43681;BME280;29281;50.356;30.894;2023-11-19T00:55:29;100699.09;;;0.96;97.89
43681;BME280;29281;50.356;30.894;2023-11-19T00:56:33;100708.86;;;0.88;98.29
43681;BME280;29281;50.356;30.894;2023-11-19T00:57:36;100704.29;;;0.98;98.25
43681;BME280;29281;50.356;30.894;2023-11-19T00:58:40;100715.53;;;1.03;98.43
43681;BME280;29281;50.356;30.894;2023-11-19T00:59:42;100713.23;;;0.88;98.41
43681;BME280;29281;50.356;30.894;2023-11-19T01:00:46;100710.59;;;0.89;98.76
43681;BME280;29281;50.356;30.894;2023-11-19T01:01:50;100709.61;;;0.93;98.10
43681;BME280;29281;50.356;30.894;2023-11-19T01:02:56;100702.83;;;0.85;98.30
43681;BME280;29281;50.356;30.894;2023-11-19T01:03:59;100703.42;;;0.97;97.99
43681;BME280;29281;50.356;30.894;2023-11-19T01:05:02;100696.65;;;0.89;98.22
43681;BME280;29281;50.356;30.894;2023-11-19T01:06:06;100703.48;;;0.94;97.88
43681;BME280;29281;50.356;30.894;2023-11-19T01:07:11;100709.72;;;0.89;98.08
43681;BME280;29281;50.356;30.894;2023-11-19T01:08:17;100703.82;;;0.78;98.94
43681;BME280;29281;50.356;30.894;2023-11-19T01:09:20;100709.35;;;0.62;98.75
43681;BME280;29281;50.356;30.894;2023-11-19T01:10:24;100702.27;;;0.69;99.30
43681;BME280;29281;50.356;30.894;2023-11-19T01:11:29;100699.38;;;0.83;98.78
43681;BME280;29281;50.356;30.894;2023-11-19T01:12:32;100695.76;;;0.90;98.05
43681;BME280;29281;50.356;30.894;2023-11-19T01:13:39;100695.81;;;0.87;97.97
43681;BME280;29281;50.356;30.894;2023-11-19T01:14:43;100690.35;;;0.97;98.31
43681;BME280;29281;50.356;30.894;2023-11-19T01:15:46;100690.53;;;0.90;98.19
43681;BME280;29281;50.356;30.894;2023-11-19T01:16:49;100695.26;;;0.71;98.60
43681;BME280;29281;50.356;30.894;2023-11-19T01:17:55;100692.64;;;0.71;98.95
43681;BME280;29281;50.356;30.894;2023-11-19T01:18:59;100691.33;;;0.92;98.83
43681;BME280;29281;50.356;30.894;2023-11-19T01:20:06;100697.84;;;0.73;97.90
43681;BME280;29281;50.356;30.894;2023-11-19T01:21:11;100691.59;;;0.80;98.16
43681;BME280;29281;50.356;30.894;2023-11-19T01:22:15;100690.38;;;0.96;98.10
43681;BME280;29281;50.356;30.894;2023-11-19T01:23:18;100689.95;;;0.76;98.00
43681;BME280;29281;50.356;30.894;2023-11-19T01:24:24;100685.64;;;0.73;98.75
43681;BME280;29281;50.356;30.894;2023-11-19T01:25:28;100682.97;;;0.76;98.35
43681;BME280;29281;50.356;30.894;2023-11-19T01:26:32;100687.42;;;0.71;98.59
43681;BME280;29281;50.356;30.894;2023-11-19T01:27:35;100679.43;;;0.77;98.78
43681;BME280;29281;50.356;30.894;2023-11-19T01:28:41;100681.02;;;0.86;98.04
43681;BME280;29281;50.356;30.894;2023-11-19T01:29:49;100678.91;;;1.03;97.55
43681;BME280;29281;50.356;30.894;2023-11-19T01:30:52;100686.77;;;1.03;97.58
43681;BME280;29281;50.356;30.894;2023-11-19T01:31:56;100679.27;;;0.86;97.67
43681;BME280;29281;50.356;30.894;2023-11-19T01:33:03;100677.83;;;0.72;98.18
43681;BME280;29281;50.356;30.894;2023-11-19T01:34:07;100674.34;;;0.71;98.90
43681;BME280;29281;50.356;30.894;2023-11-19T01:35:14;100677.02;;;0.68;98.88
43681;BME280;29281;50.356;30.894;2023-11-19T01:36:21;100681.49;;;0.61;99.01
43681;BME280;29281;50.356;30.894;2023-11-19T01:37:25;100672.39;;;0.81;98.90
43681;BME280;29281;50.356;30.894;2023-11-19T01:38:29;100680.52;;;0.67;99.25
43681;BME280;29281;50.356;30.894;2023-11-19T01:39:33;100673.48;;;0.70;99.38
43681;BME280;29281;50.356;30.894;2023-11-19T01:40:37;100673.41;;;0.75;99.00
43681;BME280;29281;50.356;30.894;2023-11-19T01:41:41;100677.48;;;0.88;99.06
43681;BME280;29281;50.356;30.894;2023-11-19T01:42:45;100674.84;;;0.90;98.26
43681;BME280;29281;50.356;30.894;2023-11-19T01:43:49;100666.33;;;0.79;98.41
43681;BME280;29281;50.356;30.894;2023-11-19T01:44:59;100668.78;;;0.88;98.93
43681;BME280;29281;50.356;30.894;2023-11-19T01:46:11;100662.66;;;0.89;99.08
43681;BME280;29281;50.356;30.894;2023-11-19T01:47:16;100662.75;;;0.84;98.99
43681;BME280;29281;50.356;30.894;2023-11-19T01:48:21;100662.77;;;0.83;99.57
43681;BME280;29281;50.356;30.894;2023-11-19T01:49:25;100662.83;;;0.80;99.70
43681;BME280;29281;50.356;30.894;2023-11-19T01:50:28;100665.18;;;0.92;99.58
43681;BME280;29281;50.356;30.894;2023-11-19T01:51:32;100669.67;;;0.87;98.70
43681;BME280;29281;50.356;30.894;2023-11-19T01:52:38;100661.28;;;0.71;100.00
43681;BME280;29281;50.356;30.894;2023-11-19T01:53:41;100660.10;;;0.86;99.40
43681;BME280;29281;50.356;30.894;2023-11-19T01:54:44;100664.44;;;0.87;99.39
43681;BME280;29281;50.356;30.894;2023-11-19T01:55:48;100659.30;;;0.82;99.56
43681;BME280;29281;50.356;30.894;2023-11-19T01:56:52;100662.05;;;0.76;100.00
43681;BME280;29281;50.356;30.894;2023-11-19T01:58:06;100668.20;;;0.74;100.00
43681;BME280;29281;50.356;30.894;2023-11-19T01:59:13;100672.31;;;0.85;99.61
43681;BME280;29281;50.356;30.894;2023-11-19T02:00:19;100665.56;;;0.75;99.74
43681;BME280;29281;50.356;30.894;2023-11-19T02:01:23;100672.70;;;0.65;100.00
43681;BME280;29281;50.356;30.894;2023-11-19T02:02:27;100656.11;;;0.68;100.00
43681;BME280;29281;50.356;30.894;2023-11-19T02:03:31;100660.99;;;0.85;99.60
43681;BME280;29281;50.356;30.894;2023-11-19T02:04:37;100663.75;;;0.77;99.60
43681;BME280;29281;50.356;30.894;2023-11-19T02:05:43;100662.95;;;0.75;100.00
43681;BME280;29281;50.356;30.894;2023-11-19T02:06:47;100657.02;;;0.65;100.00
43681;BME280;29281;50.356;30.894;2023-11-19T02:07:52;100659.64;;;0.65;100.00
43681;BME280;29281;50.356;30.894;2023-11-19T02:08:56;100655.50;;;0.55;100.00
43681;BME280;29281;50.356;30.894;2023-11-19T02:10:00;100651.30;;;0.47;100.00
43681;BME280;29281;50.356;30.894;2023-11-19T02:11:08;100650.85;;;0.69;100.00
43681;BME280;29281;50.356;30.894;2023-11-19T02:12:13;100647.60;;;0.58;100.00
43681;BME280;29281;50.356;30.894;2023-11-19T02:13:16;100643.20;;;0.60;100.00
43681;BME280;29281;50.356;30.894;2023-11-19T02:14:21;100642.52;;;0.51;100.00
43681;BME280;29281;50.356;30.894;2023-11-19T02:15:27;100647.02;;;0.44;100.00
43681;BME280;29281;50.356;30.894;2023-11-19T02:16:33;100640.79;;;0.50;100.00
43681;BME280;29281;50.356;30.894;2023-11-19T02:17:38;100645.91;;;0.56;100.00
43681;BME280;29281;50.356;30.894;2023-11-19T02:18:42;100647.80;;;0.48;100.00
43681;BME280;29281;50.356;30.894;2023-11-19T02:19:45;100639.88;;;0.52;100.00
43681;BME280;29281;50.356;30.894;2023-11-19T02:20:49;100647.63;;;0.57;100.00
43681;BME280;29281;50.356;30.894;2023-11-19T02:21:54;100647.66;;;0.55;100.00
43681;BME280;29281;50.356;30.894;2023-11-19T02:22:57;100652.02;;;0.55;100.00
43681;BME280;29281;50.356;30.894;2023-11-19T02:24:06;100655.58;;;0.51;100.00
43681;BME280;29281;50.356;30.894;2023-11-19T02:25:12;100652.08;;;0.52;100.00
43681;BME280;29281;50.356;30.894;2023-11-19T02:28:32;100664.92;;;0.62;100.00
43681;BME280;29281;50.356;30.894;2023-11-19T02:29:36;100664.03;;;0.63;100.00
43681;BME280;29281;50.356;30.894;2023-11-19T02:30:40;100669.04;;;0.76;100.00
43681;BME280;29281;50.356;30.894;2023-11-19T02:31:45;100663.81;;;0.76;100.00
43681;BME280;29281;50.356;30.894;2023-11-19T02:32:50;100667.22;;;0.78;100.00
43681;BME280;29281;50.356;30.894;2023-11-19T02:33:53;100669.58;;;0.91;100.00
43681;BME280;29281;50.356;30.894;2023-11-19T02:34:59;100662.66;;;0.89;99.88
43681;BME280;29281;50.356;30.894;2023-11-19T02:36:06;100666.50;;;0.71;100.00
43681;BME280;29281;50.356;30.894;2023-11-19T02:37:10;100668.51;;;0.58;100.00
43681;BME280;29281;50.356;30.894;2023-11-19T02:38:14;100664.28;;;0.51;100.00
43681;BME280;29281;50.356;30.894;2023-11-19T02:39:18;100658.92;;;0.59;100.00
43681;BME280;29281;50.356;30.894;2023-11-19T02:40:24;100653.29;;;0.77;100.00
43681;BME280;29281;50.356;30.894;2023-11-19T02:41:27;100655.22;;;0.69;100.00
43681;BME280;29281;50.356;30.894;2023-11-19T02:42:30;100654.52;;;0.61;100.00
43681;BME280;29281;50.356;30.894;2023-11-19T02:43:39;100647.27;;;0.75;100.00
43681;BME280;29281;50.356;30.894;2023-11-19T02:44:45;100647.95;;;0.83;100.00
43681;BME280;29281;50.356;30.894;2023-11-19T02:45:48;100650.53;;;0.85;100.00
43681;BME280;29281;50.356;30.894;2023-11-19T02:46:52;100649.78;;;0.78;100.00
43681;BME280;29281;50.356;30.894;2023-11-19T02:47:56;100649.46;;;0.52;100.00
43681;BME280;29281;50.356;30.894;2023-11-19T02:49:00;100651.22;;;0.51;100.00
43681;BME280;29281;50.356;30.894;2023-11-19T02:50:07;100643.87;;;0.70;100.00
43681;BME280;29281;50.356;30.894;2023-11-19T02:51:14;100645.33;;;0.83;100.00
43681;BME280;29281;50.356;30.894;2023-11-19T02:52:18;100642.59;;;0.89;100.00
43681;BME280;29281;50.356;30.894;2023-11-19T02:53:23;100642.72;;;0.83;100.00
43681;BME280;29281;50.356;30.894;2023-11-19T02:54:28;100636.54;;;0.87;100.00
43681;BME280;29281;50.356;30.894;2023-11-19T02:55:33;100633.80;;;0.92;100.00
43681;BME280;29281;50.356;30.894;2023-11-19T02:56:37;100635.31;;;1.03;99.98
43681;BME280;29281;50.356;30.894;2023-11-19T02:57:42;100633.63;;;1.01;99.46
43681;BME280;29281;50.356;30.894;2023-11-19T02:58:53;100633.74;;;0.95;99.21
43681;BME280;29281;50.356;30.894;2023-11-19T02:59:58;100632.79;;;0.99;99.49
43681;BME280;29281;50.356;30.894;2023-11-19T03:01:26;100634.07;;;0.80;99.59
43681;BME280;29281;50.356;30.894;2023-11-19T03:02:31;100628.01;;;0.78;100.00
43681;BME280;29281;50.356;30.894;2023-11-19T03:03:37;100627.09;;;0.80;99.98
43681;BME280;29281;50.356;30.894;2023-11-19T03:04:43;100630.05;;;0.63;100.00
43681;BME280;29281;50.356;30.894;2023-11-19T03:05:47;100623.16;;;0.61;100.00
43681;BME280;29281;50.356;30.894;2023-11-19T03:06:52;100624.80;;;0.65;100.00
43681;BME280;29281;50.356;30.894;2023-11-19T03:07:56;100617.94;;;0.61;100.00
43681;BME280;29281;50.356;30.894;2023-11-19T03:09:02;100617.79;;;0.67;100.00
43681;BME280;29281;50.356;30.894;2023-11-19T03:10:12;100618.53;;;0.74;100.00
43681;BME280;29281;50.356;30.894;2023-11-19T03:11:22;100622.12;;;0.68;100.00
43681;BME280;29281;50.356;30.894;2023-11-19T03:12:25;100610.72;;;0.72;100.00
43681;BME280;29281;50.356;30.894;2023-11-19T03:13:29;100617.62;;;0.76;100.00
43681;BME280;29281;50.356;30.894;2023-11-19T03:14:33;100609.95;;;0.67;100.00
43681;BME280;29281;50.356;30.894;2023-11-19T03:15:40;100611.67;;;0.68;100.00
43681;BME280;29281;50.356;30.894;2023-11-19T03:16:45;100609.43;;;0.50;100.00
43681;BME280;29281;50.356;30.894;2023-11-19T03:17:49;100607.80;;;0.46;100.00
43681;BME280;29281;50.356;30.894;2023-11-19T03:18:52;100597.71;;;0.69;100.00
43681;BME280;29281;50.356;30.894;2023-11-19T03:19:57;100601.96;;;0.75;100.00
43681;BME280;29281;50.356;30.894;2023-11-19T03:21:02;100602.85;;;0.74;100.00
43681;BME280;29281;50.356;30.894;2023-11-19T03:22:07;100595.01;;;0.74;100.00
43681;BME280;29281;50.356;30.894;2023-11-19T03:23:12;100601.59;;;0.91;100.00
43681;BME280;29281;50.356;30.894;2023-11-19T03:24:18;100597.47;;;0.80;100.00
43681;BME280;29281;50.356;30.894;2023-11-19T03:25:25;100603.89;;;0.65;100.00
43681;BME280;29281;50.356;30.894;2023-11-19T03:26:41;100601.93;;;0.76;100.00
43681;BME280;29281;50.356;30.894;2023-11-19T03:27:48;100603.74;;;0.73;100.00
43681;BME280;29281;50.356;30.894;2023-11-19T03:28:53;100606.02;;;0.88;100.00
43681;BME280;29281;50.356;30.894;2023-11-19T03:29:57;100608.45;;;0.95;99.86
43681;BME280;29281;50.356;30.894;2023-11-19T03:31:01;100610.27;;;0.92;99.30
43681;BME280;29281;50.356;30.894;2023-11-19T03:32:04;100607.84;;;0.84;98.77
43681;BME280;29281;50.356;30.894;2023-11-19T03:33:08;100602.42;;;0.92;99.06
43681;BME280;29281;50.356;30.894;2023-11-19T03:34:13;100608.84;;;0.77;99.20
43681;BME280;29281;50.356;30.894;2023-11-19T03:35:16;100603.74;;;0.73;98.94
43681;BME280;29281;50.356;30.894;2023-11-19T03:36:21;100605.76;;;0.60;100.00
43681;BME280;29281;50.356;30.894;2023-11-19T03:37:26;100610.00;;;0.64;100.00
43681;BME280;29281;50.356;30.894;2023-11-19T03:38:30;100606.09;;;0.43;100.00
43681;BME280;29281;50.356;30.894;2023-11-19T03:39:33;100608.25;;;0.64;100.00
43681;BME280;29281;50.356;30.894;2023-11-19T03:40:37;100607.30;;;0.68;100.00
43681;BME280;29281;50.356;30.894;2023-11-19T03:41:45;100613.48;;;0.64;99.34
43681;BME280;29281;50.356;30.894;2023-11-19T03:42:48;100623.30;;;0.53;99.90
43681;BME280;29281;50.356;30.894;2023-11-19T03:43:52;100617.19;;;0.54;99.84
43681;BME280;29281;50.356;30.894;2023-11-19T03:44:56;100615.09;;;0.72;99.85
43681;BME280;29281;50.356;30.894;2023-11-19T03:46:00;100610.13;;;0.59;99.85
43681;BME280;29281;50.356;30.894;2023-11-19T03:47:02;100609.98;;;0.65;100.00
43681;BME280;29281;50.356;30.894;2023-11-19T03:48:08;100602.28;;;0.59;99.60
43681;BME280;29281;50.356;30.894;2023-11-19T03:49:12;100612.71;;;0.61;100.00
43681;BME280;29281;50.356;30.894;2023-11-19T03:50:15;100609.92;;;0.68;99.58
43681;BME280;29281;50.356;30.894;2023-11-19T03:51:18;100600.92;;;0.82;99.36
43681;BME280;29281;50.356;30.894;2023-11-19T03:52:21;100607.48;;;0.61;99.66
43681;BME280;29281;50.356;30.894;2023-11-19T03:53:25;100606.08;;;0.45;99.92
43681;BME280;29281;50.356;30.894;2023-11-19T03:54:27;100602.76;;;0.35;100.00
43681;BME280;29281;50.356;30.894;2023-11-19T03:55:31;100598.98;;;0.50;100.00
43681;BME280;29281;50.356;30.894;2023-11-19T03:56:33;100598.57;;;0.69;99.44
43681;BME280;29281;50.356;30.894;2023-11-19T03:57:37;100594.70;;;0.87;98.86
43681;BME280;29281;50.356;30.894;2023-11-19T03:58:40;100599.81;;;0.92;98.25
43681;BME280;29281;50.356;30.894;2023-11-19T03:59:43;100585.84;;;0.93;98.19
43681;BME280;29281;50.356;30.894;2023-11-19T04:00:47;100590.95;;;0.99;98.20
43681;BME280;29281;50.356;30.894;2023-11-19T04:01:51;100591.20;;;0.88;97.10
43681;BME280;29281;50.356;30.894;2023-11-19T04:02:56;100592.18;;;0.83;97.00
43681;BME280;29281;50.356;30.894;2023-11-19T04:04:01;100585.26;;;0.80;97.92
43681;BME280;29281;50.356;30.894;2023-11-19T04:05:06;100586.83;;;0.89;98.05
43681;BME280;29281;50.356;30.894;2023-11-19T04:06:10;100580.86;;;0.82;97.88
43681;BME280;29281;50.356;30.894;2023-11-19T04:07:18;100589.81;;;0.72;97.85
43681;BME280;29281;50.356;30.894;2023-11-19T04:08:19;100583.56;;;0.78;98.15
43681;BME280;29281;50.356;30.894;2023-11-19T04:09:23;100590.18;;;0.94;98.19
43681;BME280;29281;50.356;30.894;2023-11-19T04:10:27;100588.05;;;0.73;97.23
43681;BME280;29281;50.356;30.894;2023-11-19T04:11:32;100587.31;;;0.66;97.72
43681;BME280;29281;50.356;30.894;2023-11-19T04:12:35;100592.72;;;0.58;97.94
43681;BME280;29281;50.356;30.894;2023-11-19T04:13:40;100584.78;;;0.61;97.63
43681;BME280;29281;50.356;30.894;2023-11-19T04:14:46;100580.63;;;0.53;97.33
43681;BME280;29281;50.356;30.894;2023-11-19T04:15:53;100575.14;;;0.65;98.14
43681;BME280;29281;50.356;30.894;2023-11-19T04:16:56;100575.34;;;0.56;97.63
43681;BME280;29281;50.356;30.894;2023-11-19T04:18:00;100562.66;;;0.78;97.97
43681;BME280;29281;50.356;30.894;2023-11-19T04:19:04;100553.30;;;0.67;97.29
43681;BME280;29281;50.356;30.894;2023-11-19T04:20:07;100563.82;;;0.64;97.64
43681;BME280;29281;50.356;30.894;2023-11-19T04:21:13;100552.83;;;0.49;97.99
43681;BME280;29281;50.356;30.894;2023-11-19T04:22:16;100553.98;;;0.35;98.93
43681;BME280;29281;50.356;30.894;2023-11-19T04:23:20;100555.63;;;0.41;98.59
43681;BME280;29281;50.356;30.894;2023-11-19T04:24:25;100557.31;;;0.44;98.67
43681;BME280;29281;50.356;30.894;2023-11-19T04:25:29;100554.50;;;0.53;98.87
43681;BME280;29281;50.356;30.894;2023-11-19T04:26:43;100558.95;;;0.48;98.32
43681;BME280;29281;50.356;30.894;2023-11-19T04:27:49;100557.17;;;0.50;98.19
43681;BME280;29281;50.356;30.894;2023-11-19T04:28:52;100558.00;;;0.52;98.01
43681;BME280;29281;50.356;30.894;2023-11-19T04:29:58;100565.60;;;0.62;97.56
43681;BME280;29281;50.356;30.894;2023-11-19T04:31:00;100564.71;;;0.63;97.19
43681;BME280;29281;50.356;30.894;2023-11-19T04:32:05;100560.84;;;0.81;97.27
43681;BME280;29281;50.356;30.894;2023-11-19T04:33:10;100562.03;;;0.66;96.09
43681;BME280;29281;50.356;30.894;2023-11-19T04:34:15;100565.39;;;0.73;96.50
43681;BME280;29281;50.356;30.894;2023-11-19T04:35:20;100566.22;;;0.75;97.11
43681;BME280;29281;50.356;30.894;2023-11-19T04:36:24;100558.63;;;0.63;96.12
43681;BME280;29281;50.356;30.894;2023-11-19T04:37:28;100564.71;;;0.63;96.46
43681;BME280;29281;50.356;30.894;2023-11-19T04:38:35;100571.09;;;0.50;96.56
43681;BME280;29281;50.356;30.894;2023-11-19T04:39:44;100564.92;;;0.54;96.47
43681;BME280;29281;50.356;30.894;2023-11-19T04:40:47;100565.66;;;0.61;96.16
43681;BME280;29281;50.356;30.894;2023-11-19T04:41:54;100571.27;;;0.43;95.87
43681;BME280;29281;50.356;30.894;2023-11-19T04:42:57;100572.30;;;0.34;96.48
43681;BME280;29281;50.356;30.894;2023-11-19T04:44:00;100566.22;;;0.33;96.96
43681;BME280;29281;50.356;30.894;2023-11-19T04:45:04;100564.92;;;0.54;96.37
43681;BME280;29281;50.356;30.894;2023-11-19T04:46:09;100567.14;;;0.73;96.03
43681;BME280;29281;50.356;30.894;2023-11-19T04:47:13;100570.66;;;0.72;95.11
43681;BME280;29281;50.356;30.894;2023-11-19T04:48:16;100569.76;;;0.73;95.40
43681;BME280;29281;50.356;30.894;2023-11-19T04:49:19;100583.00;;;0.63;95.84
43681;BME280;29281;50.356;30.894;2023-11-19T04:50:23;100577.69;;;0.68;96.36
43681;BME280;29281;50.356;30.894;2023-11-19T04:51:26;100582.38;;;0.52;94.92
43681;BME280;29281;50.356;30.894;2023-11-19T04:52:30;100580.80;;;0.45;95.45
43681;BME280;29281;50.356;30.894;2023-11-19T04:53:34;100581.41;;;0.58;94.73
43681;BME280;29281;50.356;30.894;2023-11-19T04:54:41;100577.93;;;0.57;94.47
43681;BME280;29281;50.356;30.894;2023-11-19T04:55:46;100585.11;;;0.46;95.02
43681;BME280;29281;50.356;30.894;2023-11-19T04:56:50;100579.30;;;0.32;95.64
43681;BME280;29281;50.356;30.894;2023-11-19T04:57:55;100581.11;;;0.30;96.33
43681;BME280;29281;50.356;30.894;2023-11-19T04:58:58;100575.78;;;0.34;96.25
43681;BME280;29281;50.356;30.894;2023-11-19T05:00:00;100588.00;;;0.32;96.38
43681;BME280;29281;50.356;30.894;2023-11-19T05:01:06;100581.05;;;0.31;96.81
43681;BME280;29281;50.356;30.894;2023-11-19T05:02:09;100571.64;;;0.24;96.60
43681;BME280;29281;50.356;30.894;2023-11-19T05:03:12;100576.58;;;0.38;96.66
43681;BME280;29281;50.356;30.894;2023-11-19T05:04:17;100580.03;;;0.40;95.63
43681;BME280;29281;50.356;30.894;2023-11-19T05:05:22;100580.86;;;0.42;95.82
43681;BME280;29281;50.356;30.894;2023-11-19T05:06:26;100578.56;;;0.27;96.08
43681;BME280;29281;50.356;30.894;2023-11-19T05:07:31;100582.95;;;0.25;96.71
43681;BME280;29281;50.356;30.894;2023-11-19T05:08:36;100582.81;;;0.31;97.24
43681;BME280;29281;50.356;30.894;2023-11-19T05:09:43;100584.42;;;0.38;96.84
43681;BME280;29281;50.356;30.894;2023-11-19T05:10:46;100580.83;;;0.44;97.05
43681;BME280;29281;50.356;30.894;2023-11-19T05:11:50;100584.28;;;0.46;96.95
43681;BME280;29281;50.356;30.894;2023-11-19T05:12:55;100587.55;;;0.55;96.40
43681;BME280;29281;50.356;30.894;2023-11-19T05:14:02;100589.36;;;0.52;96.02
43681;BME280;29281;50.356;30.894;2023-11-19T05:15:08;100591.97;;;0.52;95.65
43681;BME280;29281;50.356;30.894;2023-11-19T05:16:13;100583.78;;;0.68;95.50
43681;BME280;29281;50.356;30.894;2023-11-19T05:17:17;100596.45;;;0.87;95.00
43681;BME280;29281;50.356;30.894;2023-11-19T05:18:23;100597.66;;;0.72;94.52
43681;BME280;29281;50.356;30.894;2023-11-19T05:19:27;100587.55;;;0.55;95.27
43681;BME280;29281;50.356;30.894;2023-11-19T05:20:32;100584.08;;;0.55;94.52
43681;BME280;29281;50.356;30.894;2023-11-19T05:21:36;100591.34;;;0.41;94.43
43681;BME280;29281;50.356;30.894;2023-11-19T05:22:43;100586.25;;;0.33;95.64
43681;BME280;29281;50.356;30.894;2023-11-19T05:23:46;100582.59;;;0.43;95.95
43681;BME280;29281;50.356;30.894;2023-11-19T05:24:52;100582.44;;;0.49;94.70
43681;BME280;29281;50.356;30.894;2023-11-19T05:25:57;100581.72;;;0.43;95.05
43681;BME280;29281;50.356;30.894;2023-11-19T05:27:02;100572.13;;;0.43;95.72
43681;BME280;29281;50.356;30.894;2023-11-19T05:28:07;100573.41;;;0.64;95.49
43681;BME280;29281;50.356;30.894;2023-11-19T05:29:12;100565.39;;;0.73;94.92
43681;BME280;29281;50.356;30.894;2023-11-19T05:30:16;100571.60;;;0.67;93.29
43681;BME280;29281;50.356;30.894;2023-11-19T05:31:20;100579.66;;;0.58;93.52
43681;BME280;29281;50.356;30.894;2023-11-19T05:32:23;100569.61;;;0.39;93.68
43681;BME280;29281;50.356;30.894;2023-11-19T05:33:26;100573.30;;;0.28;93.81
43681;BME280;29281;50.356;30.894;2023-11-19T05:34:29;100575.14;;;0.23;94.67
43681;BME280;29281;50.356;30.894;2023-11-19T05:35:36;100577.58;;;0.31;94.55
43681;BME280;29281;50.356;30.894;2023-11-19T05:36:41;100581.22;;;0.24;94.09
43681;BME280;29281;50.356;30.894;2023-11-19T05:37:44;100578.02;;;0.10;94.14
43681;BME280;29281;50.356;30.894;2023-11-19T05:38:50;100570.97;;;0.15;94.63
43681;BME280;29281;50.356;30.894;2023-11-19T05:39:54;100567.33;;;0.22;94.33